sensor_id;sensor_type;location;lat;lon;timestamp;temperature;humidity
19999;DHT22;10160;50.926;4.374;2023-11-21T01:02:43;10.20;99.90
19999;DHT22;10160;50.926;4.374;2023-11-21T01:09:09;10.40;99.90
19999;DHT22;10160;50.926;4.374;2023-11-21T01:40:01;10.50;99.90
19999;DHT22;10160;50.926;4.374;2023-11-21T01:46:50;10.60;99.90
19999;DHT22;10160;50.926;4.374;2023-11-21T01:50:00;10.50;99.90
19999;DHT22;10160;50.926;4.374;2023-11-21T02:28:04;10.50;99.90
19999;DHT22;10160;50.926;4.374;2023-11-21T04:54:48;11.10;99.90
19999;DHT22;10160;50.926;4.374;2023-11-21T05:07:36;11.20;99.90
19999;DHT22;10160;50.926;4.374;2023-11-21T05:10:34;11.20;99.90
19999;DHT22;10160;50.926;4.374;2023-11-21T05:13:29;11.20;99.90
19999;DHT22;10160;50.926;4.374;2023-11-21T05:16:33;11.10;99.90
19999;DHT22;10160;50.926;4.374;2023-11-21T05:19:10;11.00;99.90
19999;DHT22;10160;50.926;4.374;2023-11-21T05:21:48;11.10;99.90
19999;DHT22;10160;50.926;4.374;2023-11-21T05:24:31;11.20;99.90
19999;DHT22;10160;50.926;4.374;2023-11-21T05:27:27;11.30;99.90
19999;DHT22;10160;50.926;4.374;2023-11-21T05:56:47;11.30;99.90
19999;DHT22;10160;50.926;4.374;2023-11-21T06:12:58;11.20;99.90
19999;DHT22;10160;50.926;4.374;2023-11-21T06:16:07;11.30;99.90
19999;DHT22;10160;50.926;4.374;2023-11-21T06:26:37;11.00;99.90
19999;DHT22;10160;50.926;4.374;2023-11-21T06:32:44;11.10;99.90
19999;DHT22;10160;50.926;4.374;2023-11-21T06:35:33;11.10;99.90
19999;DHT22;10160;50.926;4.374;2023-11-21T06:38:25;11.10;99.90
19999;DHT22;10160;50.926;4.374;2023-11-21T06:47:17;11.10;99.90
19999;DHT22;10160;50.926;4.374;2023-11-21T06:49:53;11.10;99.90
19999;DHT22;10160;50.926;4.374;2023-11-21T06:52:52;11.10;99.90
19999;DHT22;10160;50.926;4.374;2023-11-21T06:59:08;11.10;99.90
19999;DHT22;10160;50.926;4.374;2023-11-21T07:02:00;11.20;99.90
19999;DHT22;10160;50.926;4.374;2023-11-21T07:04:28;11.20;99.90
19999;DHT22;10160;50.926;4.374;2023-11-21T07:07:15;11.30;99.90
19999;DHT22;10160;50.926;4.374;2023-11-21T07:10:14;11.30;99.90
19999;DHT22;10160;50.926;4.374;2023-11-21T07:16:12;11.10;99.90
19999;DHT22;10160;50.926;4.374;2023-11-21T07:19:01;11.20;99.90
19999;DHT22;10160;50.926;4.374;2023-11-21T07:32:36;11.30;99.90
19999;DHT22;10160;50.926;4.374;2023-11-21T07:35:33;11.30;99.90
19999;DHT22;10160;50.926;4.374;2023-11-21T07:38:12;11.30;99.90
19999;DHT22;10160;50.926;4.374;2023-11-21T07:41:04;11.30;99.90
19999;DHT22;10160;50.926;4.374;2023-11-21T08:08:32;11.50;99.90
19999;DHT22;10160;50.926;4.374;2023-11-21T08:42:39;11.60;99.90
19999;DHT22;10160;50.926;4.374;2023-11-21T09:07:29;12.00;99.90
19999;DHT22;10160;50.926;4.374;2023-11-21T09:10:51;12.00;99.90
19999;DHT22;10160;50.926;4.374;2023-11-21T09:51:49;12.30;99.90
19999;DHT22;10160;50.926;4.374;2023-11-21T10:15:11;11.90;99.90
19999;DHT22;10160;50.926;4.374;2023-11-21T10:17:49;11.90;99.90
19999;DHT22;10160;50.926;4.374;2023-11-21T10:20:57;12.30;99.90
19999;DHT22;10160;50.926;4.374;2023-11-21T10:44:45;13.70;99.90
19999;DHT22;10160;50.926;4.374;2023-11-21T10:48:07;13.60;99.90
19999;DHT22;10160;50.926;4.374;2023-11-21T10:57:49;13.20;99.90
19999;DHT22;10160;50.926;4.374;2023-11-21T11:00:51;13.60;99.90
19999;DHT22;10160;50.926;4.374;2023-11-21T11:07:43;13.80;99.90
19999;DHT22;10160;50.926;4.374;2023-11-21T13:00:47;12.80;99.90
19999;DHT22;10160;50.926;4.374;2023-11-21T13:03:14;12.80;99.90
19999;DHT22;10160;50.926;4.374;2023-11-21T13:05:43;12.80;99.90
19999;DHT22;10160;50.926;4.374;2023-11-21T13:08:11;12.60;99.90
19999;DHT22;10160;50.926;4.374;2023-11-21T13:10:40;12.80;99.90
19999;DHT22;10160;50.926;4.374;2023-11-21T13:13:09;12.80;99.90
19999;DHT22;10160;50.926;4.374;2023-11-21T13:18:36;13.00;99.90
19999;DHT22;10160;50.926;4.374;2023-11-21T13:21:04;12.90;99.90
19999;DHT22;10160;50.926;4.374;2023-11-21T13:23:41;12.90;99.90
19999;DHT22;10160;50.926;4.374;2023-11-21T13:26:10;12.60;99.90
19999;DHT22;10160;50.926;4.374;2023-11-21T13:28:36;12.70;99.90
19999;DHT22;10160;50.926;4.374;2023-11-21T13:31:04;12.70;99.90
19999;DHT22;10160;50.926;4.374;2023-11-21T13:33:35;12.80;99.90
19999;DHT22;10160;50.926;4.374;2023-11-21T13:36:04;12.70;99.90
19999;DHT22;10160;50.926;4.374;2023-11-21T13:38:33;12.80;99.90
19999;DHT22;10160;50.926;4.374;2023-11-21T13:41:00;12.90;99.90
19999;DHT22;10160;50.926;4.374;2023-11-21T13:43:27;12.70;99.90
19999;DHT22;10160;50.926;4.374;2023-11-21T13:45:54;12.60;99.90
19999;DHT22;10160;50.926;4.374;2023-11-21T13:48:29;12.70;99.90
19999;DHT22;10160;50.926;4.374;2023-11-21T13:51:06;12.60;99.90
19999;DHT22;10160;50.926;4.374;2023-11-21T13:53:48;12.60;99.90
19999;DHT22;10160;50.926;4.374;2023-11-21T13:56:18;12.50;99.90
19999;DHT22;10160;50.926;4.374;2023-11-21T13:58:52;12.40;99.90
19999;DHT22;10160;50.926;4.374;2023-11-21T14:01:23;12.50;99.90
19999;DHT22;10160;50.926;4.374;2023-11-21T14:03:57;12.60;99.90
19999;DHT22;10160;50.926;4.374;2023-11-21T14:06:28;12.50;99.90
19999;DHT22;10160;50.926;4.374;2023-11-21T14:09:00;12.30;99.90
19999;DHT22;10160;50.926;4.374;2023-11-21T14:11:30;12.40;99.90
19999;DHT22;10160;50.926;4.374;2023-11-21T14:14:02;12.50;99.90
19999;DHT22;10160;50.926;4.374;2023-11-21T14:17:11;12.50;99.90
19999;DHT22;10160;50.926;4.374;2023-11-21T14:19:36;12.30;99.90
19999;DHT22;10160;50.926;4.374;2023-11-21T14:22:06;12.40;99.90
19999;DHT22;10160;50.926;4.374;2023-11-21T14:24:34;12.60;99.90
19999;DHT22;10160;50.926;4.374;2023-11-21T14:26:59;12.50;99.90
19999;DHT22;10160;50.926;4.374;2023-11-21T14:29:25;12.40;99.90
19999;DHT22;10160;50.926;4.374;2023-11-21T14:31:52;12.50;99.90
19999;DHT22;10160;50.926;4.374;2023-11-21T14:34:22;12.50;99.90
19999;DHT22;10160;50.926;4.374;2023-11-21T14:36:48;12.50;99.90
19999;DHT22;10160;50.926;4.374;2023-11-21T14:39:14;12.40;99.90
19999;DHT22;10160;50.926;4.374;2023-11-21T14:41:53;12.50;99.90
19999;DHT22;10160;50.926;4.374;2023-11-21T14:44:21;12.50;99.90
19999;DHT22;10160;50.926;4.374;2023-11-21T14:46:54;12.50;99.90
19999;DHT22;10160;50.926;4.374;2023-11-21T14:49:21;12.60;99.90
19999;DHT22;10160;50.926;4.374;2023-11-21T14:51:50;12.50;99.90
19999;DHT22;10160;50.926;4.374;2023-11-21T14:54:30;12.60;99.90
19999;DHT22;10160;50.926;4.374;2023-11-21T14:57:14;12.50;99.90
19999;DHT22;10160;50.926;4.374;2023-11-21T14:59:53;12.60;99.90
19999;DHT22;10160;50.926;4.374;2023-11-21T15:02:23;12.60;99.90
19999;DHT22;10160;50.926;4.374;2023-11-21T15:05:18;12.60;99.90
19999;DHT22;10160;50.926;4.374;2023-11-21T15:08:09;12.50;99.90
19999;DHT22;10160;50.926;4.374;2023-11-21T15:10:55;12.50;99.90
19999;DHT22;10160;50.926;4.374;2023-11-21T15:13:21;12.60;99.90
19999;DHT22;10160;50.926;4.374;2023-11-21T15:15:52;12.70;99.90
19999;DHT22;10160;50.926;4.374;2023-11-21T15:18:21;12.60;99.90
19999;DHT22;10160;50.926;4.374;2023-11-21T15:20:47;12.70;99.90
19999;DHT22;10160;50.926;4.374;2023-11-21T15:23:13;12.70;99.90
19999;DHT22;10160;50.926;4.374;2023-11-21T15:25:39;12.60;99.90
19999;DHT22;10160;50.926;4.374;2023-11-21T15:28:05;12.50;99.90
19999;DHT22;10160;50.926;4.374;2023-11-21T15:30:31;12.50;99.90
19999;DHT22;10160;50.926;4.374;2023-11-21T15:32:58;12.40;99.90
19999;DHT22;10160;50.926;4.374;2023-11-21T15:35:24;12.40;99.90
19999;DHT22;10160;50.926;4.374;2023-11-21T15:37:50;12.30;99.90
19999;DHT22;10160;50.926;4.374;2023-11-21T15:40:16;12.30;99.90
19999;DHT22;10160;50.926;4.374;2023-11-21T15:42:42;12.40;99.90
19999;DHT22;10160;50.926;4.374;2023-11-21T15:45:10;12.30;99.90
19999;DHT22;10160;50.926;4.374;2023-11-21T15:47:36;12.30;99.90
19999;DHT22;10160;50.926;4.374;2023-11-21T15:50:02;12.30;99.90
19999;DHT22;10160;50.926;4.374;2023-11-21T15:52:29;12.40;99.90
19999;DHT22;10160;50.926;4.374;2023-11-21T15:54:55;12.40;99.90
19999;DHT22;10160;50.926;4.374;2023-11-21T15:57:21;12.30;99.90
19999;DHT22;10160;50.926;4.374;2023-11-21T15:59:48;12.40;99.90
19999;DHT22;10160;50.926;4.374;2023-11-21T16:02:13;12.20;99.90
19999;DHT22;10160;50.926;4.374;2023-11-21T16:04:41;12.20;99.90
19999;DHT22;10160;50.926;4.374;2023-11-21T16:07:08;12.10;99.90
19999;DHT22;10160;50.926;4.374;2023-11-21T16:09:34;12.20;99.90
19999;DHT22;10160;50.926;4.374;2023-11-21T16:12:01;12.10;99.90
19999;DHT22;10160;50.926;4.374;2023-11-21T16:14:33;12.00;99.90
19999;DHT22;10160;50.926;4.374;2023-11-21T16:17:08;12.10;99.90
19999;DHT22;10160;50.926;4.374;2023-11-21T16:19:34;12.20;99.90
19999;DHT22;10160;50.926;4.374;2023-11-21T16:22:00;12.10;99.90
19999;DHT22;10160;50.926;4.374;2023-11-21T16:24:27;12.10;99.90
19999;DHT22;10160;50.926;4.374;2023-11-21T16:27:02;12.20;99.90
19999;DHT22;10160;50.926;4.374;2023-11-21T16:29:28;12.10;99.90
19999;DHT22;10160;50.926;4.374;2023-11-21T16:31:56;12.00;99.90
19999;DHT22;10160;50.926;4.374;2023-11-21T16:34:22;12.00;99.90
19999;DHT22;10160;50.926;4.374;2023-11-21T16:36:48;11.90;99.90
19999;DHT22;10160;50.926;4.374;2023-11-21T16:39:15;11.90;99.90
19999;DHT22;10160;50.926;4.374;2023-11-21T16:41:42;12.10;99.90
19999;DHT22;10160;50.926;4.374;2023-11-21T16:44:18;12.10;99.90
19999;DHT22;10160;50.926;4.374;2023-11-21T16:46:48;12.20;99.90
19999;DHT22;10160;50.926;4.374;2023-11-21T16:49:31;12.10;99.90
19999;DHT22;10160;50.926;4.374;2023-11-21T16:51:58;12.20;99.90
19999;DHT22;10160;50.926;4.374;2023-11-21T16:54:24;12.30;99.90
19999;DHT22;10160;50.926;4.374;2023-11-21T16:56:50;12.10;99.90
19999;DHT22;10160;50.926;4.374;2023-11-21T16:59:15;12.10;99.90
19999;DHT22;10160;50.926;4.374;2023-11-21T17:01:41;12.00;99.90
19999;DHT22;10160;50.926;4.374;2023-11-21T17:04:07;12.10;99.90
19999;DHT22;10160;50.926;4.374;2023-11-21T17:06:39;12.20;99.90
19999;DHT22;10160;50.926;4.374;2023-11-21T17:09:05;12.10;99.90
19999;DHT22;10160;50.926;4.374;2023-11-21T17:11:37;12.20;99.90
19999;DHT22;10160;50.926;4.374;2023-11-21T17:14:04;12.20;99.90
19999;DHT22;10160;50.926;4.374;2023-11-21T17:16:31;12.20;99.90
19999;DHT22;10160;50.926;4.374;2023-11-21T17:18:57;12.10;99.90
19999;DHT22;10160;50.926;4.374;2023-11-21T17:21:23;12.20;99.90
19999;DHT22;10160;50.926;4.374;2023-11-21T17:23:49;12.20;99.90
19999;DHT22;10160;50.926;4.374;2023-11-21T17:26:15;12.20;99.90
19999;DHT22;10160;50.926;4.374;2023-11-21T17:28:44;12.10;99.90
19999;DHT22;10160;50.926;4.374;2023-11-21T17:31:10;12.10;99.90
19999;DHT22;10160;50.926;4.374;2023-11-21T17:33:36;11.90;99.90
19999;DHT22;10160;50.926;4.374;2023-11-21T17:36:03;12.00;99.90
19999;DHT22;10160;50.926;4.374;2023-11-21T17:38:29;12.00;99.90
19999;DHT22;10160;50.926;4.374;2023-11-21T17:40:55;12.10;99.90
19999;DHT22;10160;50.926;4.374;2023-11-21T17:43:21;12.10;99.90
19999;DHT22;10160;50.926;4.374;2023-11-21T17:45:46;12.00;99.90
19999;DHT22;10160;50.926;4.374;2023-11-21T17:48:12;12.00;99.90
19999;DHT22;10160;50.926;4.374;2023-11-21T17:50:38;11.90;99.90
19999;DHT22;10160;50.926;4.374;2023-11-21T17:53:04;12.00;99.90
19999;DHT22;10160;50.926;4.374;2023-11-21T17:55:30;12.00;99.90
19999;DHT22;10160;50.926;4.374;2023-11-21T17:57:56;11.90;99.90
19999;DHT22;10160;50.926;4.374;2023-11-21T18:00:23;12.00;99.90
19999;DHT22;10160;50.926;4.374;2023-11-21T18:02:55;12.00;99.90
19999;DHT22;10160;50.926;4.374;2023-11-21T18:05:20;12.00;99.90
19999;DHT22;10160;50.926;4.374;2023-11-21T18:07:49;12.00;99.90
19999;DHT22;10160;50.926;4.374;2023-11-21T18:10:16;12.00;99.90
19999;DHT22;10160;50.926;4.374;2023-11-21T18:12:42;12.10;99.90
19999;DHT22;10160;50.926;4.374;2023-11-21T18:15:08;12.00;99.90
19999;DHT22;10160;50.926;4.374;2023-11-21T18:17:34;11.80;99.90
19999;DHT22;10160;50.926;4.374;2023-11-21T18:20:00;11.80;99.90
19999;DHT22;10160;50.926;4.374;2023-11-21T18:22:26;11.80;99.90
19999;DHT22;10160;50.926;4.374;2023-11-21T18:24:53;12.00;99.90
19999;DHT22;10160;50.926;4.374;2023-11-21T18:27:19;12.10;99.90
19999;DHT22;10160;50.926;4.374;2023-11-21T18:29:46;12.00;99.90
19999;DHT22;10160;50.926;4.374;2023-11-21T18:32:12;12.10;99.90
19999;DHT22;10160;50.926;4.374;2023-11-21T18:34:41;12.10;99.90
19999;DHT22;10160;50.926;4.374;2023-11-21T18:37:08;12.20;99.90
19999;DHT22;10160;50.926;4.374;2023-11-21T18:39:34;12.20;99.90
19999;DHT22;10160;50.926;4.374;2023-11-21T18:41:59;12.20;99.90
19999;DHT22;10160;50.926;4.374;2023-11-21T18:44:25;12.10;99.90
19999;DHT22;10160;50.926;4.374;2023-11-21T18:46:51;12.10;99.90
19999;DHT22;10160;50.926;4.374;2023-11-21T18:49:20;12.00;99.90
19999;DHT22;10160;50.926;4.374;2023-11-21T18:51:46;12.10;99.90
19999;DHT22;10160;50.926;4.374;2023-11-21T18:54:13;12.00;99.90
19999;DHT22;10160;50.926;4.374;2023-11-21T18:56:39;11.90;99.90
19999;DHT22;10160;50.926;4.374;2023-11-21T18:59:05;12.10;99.90
19999;DHT22;10160;50.926;4.374;2023-11-21T19:01:33;12.10;99.90
19999;DHT22;10160;50.926;4.374;2023-11-21T19:03:59;12.10;99.90
19999;DHT22;10160;50.926;4.374;2023-11-21T19:06:26;12.10;99.90
19999;DHT22;10160;50.926;4.374;2023-11-21T19:08:52;12.10;99.90
19999;DHT22;10160;50.926;4.374;2023-11-21T19:11:18;12.00;99.90
19999;DHT22;10160;50.926;4.374;2023-11-21T19:13:44;11.70;99.90
19999;DHT22;10160;50.926;4.374;2023-11-21T19:16:11;11.80;99.90
19999;DHT22;10160;50.926;4.374;2023-11-21T19:18:40;11.80;99.90
19999;DHT22;10160;50.926;4.374;2023-11-21T19:21:15;11.80;99.90
19999;DHT22;10160;50.926;4.374;2023-11-21T19:23:42;11.80;99.90
19999;DHT22;10160;50.926;4.374;2023-11-21T19:26:08;11.70;99.90
19999;DHT22;10160;50.926;4.374;2023-11-21T19:28:34;11.60;99.90
19999;DHT22;10160;50.926;4.374;2023-11-21T19:31:00;11.70;99.90
19999;DHT22;10160;50.926;4.374;2023-11-21T19:33:27;11.70;99.90
19999;DHT22;10160;50.926;4.374;2023-11-21T19:35:53;11.80;99.90
19999;DHT22;10160;50.926;4.374;2023-11-21T19:38:19;11.80;99.90
19999;DHT22;10160;50.926;4.374;2023-11-21T19:40:45;11.60;99.90
19999;DHT22;10160;50.926;4.374;2023-11-21T19:43:11;11.50;99.90
19999;DHT22;10160;50.926;4.374;2023-11-21T19:45:38;11.60;99.90
19999;DHT22;10160;50.926;4.374;2023-11-21T19:48:04;11.70;99.90
19999;DHT22;10160;50.926;4.374;2023-11-21T19:50:31;11.70;99.90
19999;DHT22;10160;50.926;4.374;2023-11-21T19:52:57;11.60;99.90
19999;DHT22;10160;50.926;4.374;2023-11-21T19:55:23;11.50;99.90
19999;DHT22;10160;50.926;4.374;2023-11-21T19:57:48;11.50;99.90
19999;DHT22;10160;50.926;4.374;2023-11-21T20:00:15;11.50;99.90
19999;DHT22;10160;50.926;4.374;2023-11-21T20:02:41;11.40;99.90
19999;DHT22;10160;50.926;4.374;2023-11-21T20:05:09;11.30;99.90
19999;DHT22;10160;50.926;4.374;2023-11-21T20:07:34;11.30;99.90
19999;DHT22;10160;50.926;4.374;2023-11-21T20:10:00;11.30;99.90
19999;DHT22;10160;50.926;4.374;2023-11-21T20:12:26;11.10;99.90
19999;DHT22;10160;50.926;4.374;2023-11-21T20:14:53;11.00;99.90
19999;DHT22;10160;50.926;4.374;2023-11-21T20:17:18;10.90;99.90
19999;DHT22;10160;50.926;4.374;2023-11-21T20:19:44;10.90;99.90
19999;DHT22;10160;50.926;4.374;2023-11-21T20:22:11;10.80;99.90
19999;DHT22;10160;50.926;4.374;2023-11-21T20:24:37;10.70;99.90
19999;DHT22;10160;50.926;4.374;2023-11-21T20:27:04;10.60;99.90
19999;DHT22;10160;50.926;4.374;2023-11-21T20:29:30;10.50;99.90
19999;DHT22;10160;50.926;4.374;2023-11-21T20:32:00;10.60;99.90
19999;DHT22;10160;50.926;4.374;2023-11-21T20:34:26;10.70;99.90
19999;DHT22;10160;50.926;4.374;2023-11-21T20:36:52;10.70;99.90
19999;DHT22;10160;50.926;4.374;2023-11-21T20:39:18;10.60;99.90
19999;DHT22;10160;50.926;4.374;2023-11-21T20:41:45;10.70;99.90
19999;DHT22;10160;50.926;4.374;2023-11-21T20:44:11;10.70;99.90
19999;DHT22;10160;50.926;4.374;2023-11-21T20:46:41;10.60;99.90
19999;DHT22;10160;50.926;4.374;2023-11-21T20:49:09;10.40;99.90
19999;DHT22;10160;50.926;4.374;2023-11-21T20:51:36;10.30;99.90
19999;DHT22;10160;50.926;4.374;2023-11-21T20:54:02;10.10;99.90
19999;DHT22;10160;50.926;4.374;2023-11-21T20:56:27;10.10;99.90
19999;DHT22;10160;50.926;4.374;2023-11-21T20:58:55;10.10;99.90
19999;DHT22;10160;50.926;4.374;2023-11-21T21:01:22;10.20;99.90
19999;DHT22;10160;50.926;4.374;2023-11-21T21:03:48;10.10;99.90
19999;DHT22;10160;50.926;4.374;2023-11-21T21:06:14;10.10;99.90
19999;DHT22;10160;50.926;4.374;2023-11-21T21:08:39;10.20;99.90
19999;DHT22;10160;50.926;4.374;2023-11-21T21:11:05;10.10;99.90
19999;DHT22;10160;50.926;4.374;2023-11-21T21:13:35;10.20;99.90
19999;DHT22;10160;50.926;4.374;2023-11-21T21:16:01;10.00;99.90
19999;DHT22;10160;50.926;4.374;2023-11-21T21:18:26;9.90;99.90
19999;DHT22;10160;50.926;4.374;2023-11-21T21:20:55;10.00;99.90
19999;DHT22;10160;50.926;4.374;2023-11-21T21:23:21;10.00;99.90
19999;DHT22;10160;50.926;4.374;2023-11-21T21:25:47;10.00;99.90
19999;DHT22;10160;50.926;4.374;2023-11-21T21:28:13;9.90;99.90
19999;DHT22;10160;50.926;4.374;2023-11-21T21:30:39;9.90;99.90
19999;DHT22;10160;50.926;4.374;2023-11-21T21:33:08;9.90;99.90
19999;DHT22;10160;50.926;4.374;2023-11-21T21:35:33;9.90;99.90
19999;DHT22;10160;50.926;4.374;2023-11-21T21:37:59;9.80;99.90
19999;DHT22;10160;50.926;4.374;2023-11-21T21:40:26;9.80;99.90
19999;DHT22;10160;50.926;4.374;2023-11-21T21:42:57;9.70;99.90
19999;DHT22;10160;50.926;4.374;2023-11-21T21:45:30;9.90;99.90
19999;DHT22;10160;50.926;4.374;2023-11-21T21:47:55;9.80;99.90
19999;DHT22;10160;50.926;4.374;2023-11-21T21:50:21;9.80;99.90
19999;DHT22;10160;50.926;4.374;2023-11-21T21:52:50;9.80;99.90
19999;DHT22;10160;50.926;4.374;2023-11-21T21:55:15;9.80;99.90
19999;DHT22;10160;50.926;4.374;2023-11-21T21:57:45;9.70;99.90
19999;DHT22;10160;50.926;4.374;2023-11-21T22:00:11;9.70;99.90
19999;DHT22;10160;50.926;4.374;2023-11-21T22:02:41;9.80;99.90
19999;DHT22;10160;50.926;4.374;2023-11-21T22:05:11;9.80;99.90
19999;DHT22;10160;50.926;4.374;2023-11-21T22:07:38;9.80;99.90
19999;DHT22;10160;50.926;4.374;2023-11-21T22:10:05;9.70;99.90
19999;DHT22;10160;50.926;4.374;2023-11-21T22:12:31;9.60;99.90
19999;DHT22;10160;50.926;4.374;2023-11-21T22:14:57;9.50;99.90
19999;DHT22;10160;50.926;4.374;2023-11-21T22:17:22;9.50;99.90
19999;DHT22;10160;50.926;4.374;2023-11-21T22:19:48;9.40;99.90
19999;DHT22;10160;50.926;4.374;2023-11-21T22:22:13;9.40;99.90
19999;DHT22;10160;50.926;4.374;2023-11-21T22:24:39;9.20;99.90
19999;DHT22;10160;50.926;4.374;2023-11-21T22:27:05;9.20;99.90
19999;DHT22;10160;50.926;4.374;2023-11-21T22:29:31;9.10;99.90
19999;DHT22;10160;50.926;4.374;2023-11-21T22:31:56;9.00;99.90
19999;DHT22;10160;50.926;4.374;2023-11-21T22:34:22;9.00;99.90
19999;DHT22;10160;50.926;4.374;2023-11-21T22:36:50;9.10;99.90
19999;DHT22;10160;50.926;4.374;2023-11-21T22:39:16;9.00;99.90
19999;DHT22;10160;50.926;4.374;2023-11-21T22:41:42;9.00;99.90
19999;DHT22;10160;50.926;4.374;2023-11-21T22:44:08;8.90;99.90
19999;DHT22;10160;50.926;4.374;2023-11-21T22:46:41;8.90;99.90
19999;DHT22;10160;50.926;4.374;2023-11-21T22:49:06;8.80;99.90
19999;DHT22;10160;50.926;4.374;2023-11-21T22:51:33;8.70;99.90
19999;DHT22;10160;50.926;4.374;2023-11-21T22:53:59;8.50;99.90
19999;DHT22;10160;50.926;4.374;2023-11-21T22:56:25;8.70;99.90
19999;DHT22;10160;50.926;4.374;2023-11-21T22:58:52;8.70;99.90
19999;DHT22;10160;50.926;4.374;2023-11-21T23:01:18;8.70;99.90
19999;DHT22;10160;50.926;4.374;2023-11-21T23:03:45;8.70;99.90
19999;DHT22;10160;50.926;4.374;2023-11-21T23:06:16;8.70;99.90
19999;DHT22;10160;50.926;4.374;2023-11-21T23:08:42;8.70;99.90
19999;DHT22;10160;50.926;4.374;2023-11-21T23:11:09;8.70;99.90
19999;DHT22;10160;50.926;4.374;2023-11-21T23:13:37;8.50;99.90
19999;DHT22;10160;50.926;4.374;2023-11-21T23:16:03;8.50;99.90
19999;DHT22;10160;50.926;4.374;2023-11-21T23:18:29;8.50;99.90
19999;DHT22;10160;50.926;4.374;2023-11-21T23:20:55;8.50;99.90
19999;DHT22;10160;50.926;4.374;2023-11-21T23:23:22;8.50;99.90
19999;DHT22;10160;50.926;4.374;2023-11-21T23:25:56;8.40;99.90
19999;DHT22;10160;50.926;4.374;2023-11-21T23:28:22;8.40;99.90
19999;DHT22;10160;50.926;4.374;2023-11-21T23:30:49;8.50;99.90
19999;DHT22;10160;50.926;4.374;2023-11-21T23:33:19;8.40;99.90
19999;DHT22;10160;50.926;4.374;2023-11-21T23:35:45;8.40;99.90
19999;DHT22;10160;50.926;4.374;2023-11-21T23:38:11;8.40;99.90
19999;DHT22;10160;50.926;4.374;2023-11-21T23:40:37;8.30;99.90
19999;DHT22;10160;50.926;4.374;2023-11-21T23:43:03;8.30;99.90
19999;DHT22;10160;50.926;4.374;2023-11-21T23:45:29;8.20;99.90
19999;DHT22;10160;50.926;4.374;2023-11-21T23:47:55;8.10;99.90
19999;DHT22;10160;50.926;4.374;2023-11-21T23:50:21;8.10;99.90
19999;DHT22;10160;50.926;4.374;2023-11-21T23:52:49;8.10;99.90
19999;DHT22;10160;50.926;4.374;2023-11-21T23:55:15;8.10;99.90
19999;DHT22;10160;50.926;4.374;2023-11-21T23:57:41;8.10;99.90
